createdAt,value
2019-05-12T00:00:23.731Z,5.65
2019-05-12T00:01:23.734Z,5.59
2019-05-12T00:02:23.711Z,5.54
2019-05-12T00:03:23.685Z,5.64
2019-05-12T00:04:23.698Z,5.65
2019-05-12T00:05:23.689Z,5.64
2019-05-12T00:06:23.658Z,5.68
2019-05-12T00:07:23.649Z,5.66
2019-05-12T00:08:23.645Z,5.64
2019-05-12T00:09:23.630Z,5.62
2019-05-12T00:10:23.609Z,5.62
2019-05-12T00:11:23.601Z,5.65
2019-05-12T00:12:23.582Z,5.62
2019-05-12T00:13:23.613Z,5.50
2019-05-12T00:14:23.562Z,5.54
2019-05-12T00:15:23.553Z,5.44
2019-05-12T00:16:23.542Z,5.47
2019-05-12T00:17:23.529Z,5.47
2019-05-12T00:18:23.545Z,5.46
2019-05-12T00:19:23.509Z,5.51
2019-05-12T00:20:23.509Z,5.51
2019-05-12T00:21:23.481Z,5.47
2019-05-12T00:22:23.477Z,5.43
2019-05-12T00:23:27.775Z,5.44
2019-05-12T00:24:24.465Z,5.38
2019-05-12T00:25:23.441Z,5.41
2019-05-12T00:26:23.436Z,5.43
2019-05-12T00:27:23.429Z,5.38
2019-05-12T00:28:23.405Z,5.44
2019-05-12T00:29:23.425Z,5.44
2019-05-12T00:30:23.386Z,5.35
2019-05-12T00:31:23.373Z,5.46
2019-05-12T00:32:23.361Z,5.39
2019-05-12T00:33:23.349Z,5.44
2019-05-12T00:34:23.345Z,5.48
2019-05-12T00:35:23.345Z,5.54
2019-05-12T00:36:23.318Z,5.56
2019-05-12T00:37:23.321Z,5.65
2019-05-12T00:38:23.293Z,5.53
2019-05-12T00:39:23.285Z,5.62
2019-05-12T00:40:23.287Z,5.54
2019-05-12T00:41:23.261Z,5.53
2019-05-12T00:42:23.249Z,5.53
2019-05-12T00:43:23.253Z,5.56
2019-05-12T00:44:23.251Z,5.61
2019-05-12T00:45:23.221Z,5.66
2019-05-12T00:46:23.225Z,5.64
2019-05-12T00:47:23.201Z,5.65
2019-05-12T00:48:23.189Z,5.57
2019-05-12T00:49:23.170Z,5.56
2019-05-12T00:50:23.163Z,5.68
2019-05-12T00:51:23.174Z,5.64
2019-05-12T00:52:23.157Z,5.57
2019-05-12T00:53:36.212Z,5.64
2019-05-12T00:54:24.117Z,5.57
2019-05-12T00:55:23.109Z,5.54
2019-05-12T00:56:23.105Z,5.65
2019-05-12T00:57:23.093Z,5.61
2019-05-12T00:58:23.077Z,5.54
2019-05-12T00:59:23.078Z,5.47
2019-05-12T01:00:23.053Z,5.53
2019-05-12T01:01:23.061Z,5.48
2019-05-12T01:02:23.025Z,5.48
2019-05-12T01:03:23.022Z,5.61
2019-05-12T01:04:23.005Z,5.47
2019-05-12T01:05:23.009Z,5.51
2019-05-12T01:06:22.985Z,5.57
2019-05-12T01:07:22.969Z,5.59
2019-05-12T01:08:22.981Z,5.62
2019-05-12T01:09:22.949Z,5.54
2019-05-12T01:10:22.969Z,5.65
2019-05-12T01:11:22.961Z,5.62
2019-05-12T01:12:22.925Z,5.61
2019-05-12T01:13:22.905Z,5.61
2019-05-12T01:14:22.901Z,5.69
2019-05-12T01:15:22.881Z,5.57
2019-05-12T01:16:22.874Z,5.54
2019-05-12T01:17:22.889Z,5.56
2019-05-12T01:18:22.857Z,5.54
2019-05-12T01:19:22.841Z,5.62
2019-05-12T01:20:22.842Z,5.69
2019-05-12T01:21:22.817Z,5.59
2019-05-12T01:22:22.853Z,5.48
2019-05-12T01:23:23.477Z,5.53
2019-05-12T01:24:22.785Z,5.48
2019-05-12T01:25:22.781Z,5.54
2019-05-12T01:26:22.777Z,5.47
2019-05-12T01:27:22.779Z,5.44
2019-05-12T01:28:22.755Z,5.47
2019-05-12T01:29:22.729Z,5.46
2019-05-12T01:30:22.713Z,5.47
2019-05-12T01:31:22.731Z,5.44
2019-05-12T01:32:22.706Z,5.44
2019-05-12T01:33:22.685Z,5.46
2019-05-12T01:34:22.701Z,5.50
2019-05-12T01:35:22.661Z,5.46
2019-05-12T01:36:22.649Z,5.39
2019-05-12T01:37:22.645Z,5.48
2019-05-12T01:38:22.629Z,5.46
2019-05-12T01:39:22.622Z,5.41
2019-05-12T01:40:22.617Z,5.44
2019-05-12T01:41:22.597Z,5.46
2019-05-12T01:42:22.581Z,5.36
2019-05-12T01:43:22.572Z,5.38
2019-05-12T01:44:22.593Z,5.43
2019-05-12T01:45:22.558Z,5.30
2019-05-12T01:46:22.558Z,5.21
2019-05-12T01:47:22.529Z,5.28
2019-05-12T01:48:22.522Z,5.25
2019-05-12T01:49:22.513Z,5.12
2019-05-12T01:50:22.522Z,5.12
2019-05-12T01:51:22.489Z,5.04
2019-05-12T01:52:22.478Z,5.05
2019-05-12T01:53:22.457Z,5.08
2019-05-12T01:54:22.453Z,5.08
2019-05-12T01:55:22.453Z,4.99
2019-05-12T01:56:22.470Z,4.96
2019-05-12T01:57:22.417Z,4.92
2019-05-12T01:58:22.405Z,5.02
2019-05-12T01:59:22.397Z,4.96
2019-05-12T02:00:22.394Z,4.97
2019-05-12T02:01:22.374Z,4.94
2019-05-12T02:02:22.374Z,4.92
2019-05-12T02:03:22.355Z,4.78
2019-05-12T02:04:22.342Z,4.84
2019-05-12T02:05:22.330Z,4.80
2019-05-12T02:06:22.313Z,4.74
2019-05-12T02:07:22.317Z,4.74
2019-05-12T02:08:22.305Z,4.71
2019-05-12T02:09:22.282Z,4.66
2019-05-12T02:10:22.273Z,4.73
2019-05-12T02:11:22.265Z,4.67
2019-05-12T02:12:22.258Z,4.55
2019-05-12T02:13:22.265Z,4.50
2019-05-12T02:14:22.238Z,4.56
2019-05-12T02:15:22.229Z,4.56
2019-05-12T02:16:22.205Z,4.52
2019-05-12T02:17:22.197Z,4.56
2019-05-12T02:18:22.181Z,4.44
2019-05-12T02:19:22.189Z,4.40
2019-05-12T02:20:22.161Z,4.44
2019-05-12T02:21:22.153Z,4.41
2019-05-12T02:22:22.161Z,4.40
2019-05-12T02:23:22.130Z,4.40
2019-05-12T02:24:27.067Z,4.37
2019-05-12T02:25:23.125Z,4.45
2019-05-12T02:26:22.097Z,4.31
2019-05-12T02:27:22.089Z,4.31
2019-05-12T02:28:22.073Z,4.31
2019-05-12T02:29:22.061Z,4.38
2019-05-12T02:30:22.074Z,4.30
2019-05-12T02:31:22.044Z,4.28
2019-05-12T02:32:25.338Z,4.32
2019-05-12T02:33:24.499Z,4.31
2019-05-12T02:34:25.114Z,4.28
2019-05-12T02:35:24.374Z,4.28
2019-05-12T02:36:25.347Z,4.28
2019-05-12T02:37:21.972Z,4.26
2019-05-12T02:38:24.964Z,4.31
2019-05-12T02:39:24.622Z,4.30
2019-05-12T02:40:24.908Z,4.26
2019-05-12T02:41:21.939Z,4.26
2019-05-12T02:42:24.448Z,4.41
2019-05-12T02:43:24.464Z,4.42
2019-05-12T02:44:24.722Z,4.32
2019-05-12T02:45:24.861Z,4.31
2019-05-12T02:46:25.167Z,4.35
2019-05-12T02:47:24.084Z,4.37
2019-05-12T02:48:24.604Z,4.44
2019-05-12T02:49:24.404Z,4.45
2019-05-12T02:50:24.614Z,4.48
2019-05-12T02:51:24.614Z,4.40
2019-05-12T02:52:24.906Z,4.41
2019-05-12T02:53:24.733Z,4.40
2019-05-12T02:54:24.957Z,4.37
2019-05-12T02:55:25.714Z,4.32
2019-05-12T02:56:25.235Z,4.42
2019-05-12T02:57:25.229Z,4.32
2019-05-12T02:58:25.199Z,4.31
2019-05-12T02:59:24.484Z,4.32
2019-05-12T03:00:24.220Z,4.26
2019-05-12T03:01:24.432Z,4.30
2019-05-12T03:02:24.333Z,4.37
2019-05-12T03:03:24.901Z,4.37
2019-05-12T03:04:24.558Z,4.31
2019-05-12T03:05:24.557Z,4.37
2019-05-12T03:06:24.934Z,4.24
2019-05-12T03:07:21.646Z,4.23
2019-05-12T03:08:21.646Z,4.30
2019-05-12T03:09:24.305Z,4.28
2019-05-12T03:10:21.628Z,4.24
2019-05-12T03:11:24.632Z,4.24
2019-05-12T03:12:21.586Z,4.20
2019-05-12T03:13:21.581Z,4.26
2019-05-12T03:14:25.046Z,4.16
2019-05-12T03:15:24.780Z,4.12
2019-05-12T03:16:21.554Z,4.13
2019-05-12T03:17:24.926Z,4.14
2019-05-12T03:18:25.059Z,4.20
2019-05-12T03:19:21.514Z,4.16
2019-05-12T03:20:24.217Z,4.13
2019-05-12T03:21:24.307Z,4.02
2019-05-12T03:22:24.943Z,4.10
2019-05-12T03:23:24.611Z,4.06
2019-05-12T03:24:24.686Z,4.04
2019-05-12T03:25:29.016Z,3.99
2019-05-12T03:26:24.686Z,4.02
2019-05-12T03:27:25.270Z,3.95
2019-05-12T03:28:25.154Z,4.06
2019-05-12T03:29:21.401Z,4.04
2019-05-12T03:30:21.389Z,3.96
2019-05-12T03:31:25.345Z,4.06
2019-05-12T03:32:27.619Z,3.96
2019-05-12T03:33:33.307Z,4.01
2019-05-12T03:34:22.338Z,3.98
2019-05-12T03:35:21.338Z,3.99
2019-05-12T03:36:32.292Z,4.02
2019-05-12T03:37:30.833Z,3.98
2019-05-12T03:38:24.801Z,3.99
2019-05-12T03:39:25.007Z,3.95
2019-05-12T03:40:24.704Z,3.95
2019-05-12T03:41:21.265Z,3.91
2019-05-12T03:42:24.766Z,3.92
2019-05-12T03:43:24.173Z,3.94
2019-05-12T03:44:21.237Z,3.87
2019-05-12T03:45:21.258Z,3.87
2019-05-12T03:46:24.517Z,3.81
2019-05-12T03:47:21.214Z,3.86
2019-05-12T03:48:21.202Z,3.81
2019-05-12T03:49:24.252Z,3.84
2019-05-12T03:50:24.114Z,3.86
2019-05-12T03:51:24.812Z,3.83
2019-05-12T03:52:24.114Z,3.86
2019-05-12T03:53:24.384Z,3.80
2019-05-12T03:54:24.172Z,3.80
2019-05-12T03:55:34.287Z,3.83
2019-05-12T03:56:25.545Z,3.76
2019-05-12T03:57:21.130Z,3.74
2019-05-12T03:58:21.074Z,3.78
2019-05-12T03:59:21.081Z,3.77
2019-05-12T04:00:21.089Z,3.66
2019-05-12T04:01:21.050Z,3.73
2019-05-12T04:02:21.041Z,3.87
2019-05-12T04:03:24.436Z,3.77
2019-05-12T04:04:24.226Z,3.78
2019-05-12T04:05:24.138Z,3.76
2019-05-12T04:06:24.226Z,3.86
2019-05-12T04:07:24.176Z,3.86
2019-05-12T04:08:24.368Z,3.78
2019-05-12T04:09:20.966Z,3.80
2019-05-12T04:10:20.962Z,3.86
2019-05-12T04:11:20.954Z,3.88
2019-05-12T04:12:20.926Z,4.05
2019-05-12T04:13:20.917Z,3.99
2019-05-12T04:14:20.897Z,3.98
2019-05-12T04:15:20.909Z,4.01
2019-05-12T04:16:24.445Z,4.10
2019-05-12T04:17:24.200Z,4.06
2019-05-12T04:18:20.853Z,4.10
2019-05-12T04:19:20.861Z,4.28
2019-05-12T04:20:20.834Z,4.22
2019-05-12T04:21:20.841Z,4.28
2019-05-12T04:22:20.809Z,4.30
2019-05-12T04:23:20.802Z,4.32
2019-05-12T04:24:20.794Z,4.42
2019-05-12T04:25:20.797Z,4.40
2019-05-12T04:26:20.789Z,4.41
2019-05-12T04:27:20.755Z,4.44
2019-05-12T04:28:24.183Z,4.56
2019-05-12T04:29:20.746Z,4.55
2019-05-12T04:30:20.734Z,4.50
2019-05-12T04:31:20.730Z,4.55
2019-05-12T04:32:20.710Z,4.63
2019-05-12T04:33:20.685Z,4.68
2019-05-12T04:34:20.678Z,4.70
2019-05-12T04:35:20.670Z,4.73
2019-05-12T04:36:20.666Z,4.62
2019-05-12T04:37:20.700Z,4.59
2019-05-12T04:38:20.646Z,4.63
2019-05-12T04:39:20.629Z,4.60
2019-05-12T04:40:20.619Z,4.58
2019-05-12T04:41:20.602Z,4.67
2019-05-12T04:42:20.592Z,4.68
2019-05-12T04:43:20.602Z,4.68
2019-05-12T04:44:20.579Z,4.77
2019-05-12T04:45:20.562Z,4.73
2019-05-12T04:46:20.572Z,4.78
2019-05-12T04:47:20.550Z,4.80
2019-05-12T04:48:21.602Z,4.87
2019-05-12T04:49:20.541Z,4.92
2019-05-12T04:50:20.501Z,4.99
2019-05-12T04:51:20.493Z,4.99
2019-05-12T04:52:20.479Z,5.04
2019-05-12T04:53:20.474Z,4.87
2019-05-12T04:54:20.457Z,5.00
2019-05-12T04:55:20.461Z,4.94
2019-05-12T04:56:20.847Z,5.14
2019-05-12T04:57:21.309Z,5.02
2019-05-12T04:58:20.414Z,4.96
2019-05-12T04:59:20.410Z,5.08
2019-05-12T05:00:20.389Z,5.14
2019-05-12T05:01:20.408Z,5.08
2019-05-12T05:02:20.369Z,5.10
2019-05-12T05:03:20.358Z,5.15
2019-05-12T05:04:20.341Z,5.12
2019-05-12T05:05:20.337Z,5.15
2019-05-12T05:06:20.330Z,5.12
2019-05-12T05:07:20.333Z,5.10
2019-05-12T05:08:20.301Z,5.04
2019-05-12T05:09:20.285Z,5.14
2019-05-12T05:10:20.278Z,5.20
2019-05-12T05:11:20.269Z,5.21
2019-05-12T05:12:20.265Z,5.23
2019-05-12T05:13:20.284Z,5.21
2019-05-12T05:14:20.298Z,5.20
2019-05-12T05:15:20.227Z,5.20
2019-05-12T05:16:20.251Z,5.28
2019-05-12T05:17:20.218Z,5.32
2019-05-12T05:18:20.193Z,5.33
2019-05-12T05:19:20.201Z,5.39
2019-05-12T05:20:20.169Z,5.39
2019-05-12T05:21:20.161Z,5.46
2019-05-12T05:22:20.160Z,5.41
2019-05-12T05:23:20.144Z,5.50
2019-05-12T05:24:20.148Z,5.38
2019-05-12T05:25:20.113Z,5.30
2019-05-12T05:26:27.170Z,5.28
2019-05-12T05:27:21.101Z,5.21
2019-05-12T05:28:20.081Z,5.17
2019-05-12T05:29:20.069Z,5.14
2019-05-12T05:30:20.069Z,5.08
2019-05-12T05:31:20.043Z,5.07
2019-05-12T05:32:20.044Z,5.10
2019-05-12T05:33:20.143Z,5.02
2019-05-12T05:34:20.011Z,5.05
2019-05-12T05:35:20.005Z,5.08
2019-05-12T05:36:20.075Z,5.00
2019-05-12T05:37:19.981Z,5.00
2019-05-12T05:38:20.920Z,5.10
2019-05-12T05:39:19.956Z,5.07
2019-05-12T05:40:25.030Z,5.12
2019-05-12T05:41:20.949Z,5.02
2019-05-12T05:42:22.057Z,5.02
2019-05-12T05:43:20.914Z,5.04
2019-05-12T05:44:19.897Z,4.96
2019-05-12T05:45:24.159Z,5.04
2019-05-12T05:46:20.896Z,5.02
2019-05-12T05:47:24.448Z,5.14
2019-05-12T05:48:20.856Z,5.14
2019-05-12T05:49:19.857Z,5.18
2019-05-12T05:50:24.951Z,5.18
2019-05-12T05:51:20.820Z,5.23
2019-05-12T05:52:24.595Z,5.25
2019-05-12T05:53:20.802Z,5.36
2019-05-12T05:54:22.705Z,5.39
2019-05-12T05:55:23.201Z,5.41
2019-05-12T05:56:19.766Z,5.38
2019-05-12T05:57:20.066Z,5.51
2019-05-12T05:58:19.754Z,5.62
2019-05-12T05:59:21.975Z,5.56
2019-05-12T06:00:23.024Z,5.68
2019-05-12T06:01:19.710Z,5.73
2019-05-12T06:02:25.391Z,5.79
2019-05-12T06:03:27.738Z,5.87
2019-05-12T06:04:20.676Z,5.97
2019-05-12T06:05:24.627Z,6.01
2019-05-12T06:06:20.672Z,5.97
2019-05-12T06:07:23.833Z,6.05
2019-05-12T06:08:21.139Z,6.11
2019-05-12T06:09:19.633Z,6.07
2019-05-12T06:10:19.617Z,6.08
2019-05-12T06:11:23.889Z,6.08
2019-05-12T06:12:20.602Z,6.26
2019-05-12T06:13:21.298Z,6.14
2019-05-12T06:14:20.582Z,6.27
2019-05-12T06:15:19.554Z,6.27
2019-05-12T06:16:20.734Z,6.41
2019-05-12T06:17:19.547Z,6.45
2019-05-12T06:18:19.521Z,6.56
2019-05-12T06:19:19.533Z,6.52
2019-05-12T06:20:19.509Z,6.57
2019-05-12T06:21:19.497Z,6.63
2019-05-12T06:22:19.481Z,6.72
2019-05-12T06:23:19.485Z,6.72
2019-05-12T06:24:20.217Z,6.70
2019-05-12T06:25:19.466Z,6.66
2019-05-12T06:26:21.143Z,6.74
2019-05-12T06:27:21.184Z,6.78
2019-05-12T06:28:19.409Z,6.92
2019-05-12T06:29:21.816Z,6.82
2019-05-12T06:30:19.384Z,6.85
2019-05-12T06:31:25.098Z,7.02
2019-05-12T06:32:20.380Z,7.15
2019-05-12T06:33:24.804Z,7.18
2019-05-12T06:34:21.113Z,7.39
2019-05-12T06:35:19.364Z,7.42
2019-05-12T06:36:22.032Z,7.50
2019-05-12T06:37:20.332Z,7.63
2019-05-12T06:38:19.302Z,7.69
2019-05-12T06:39:20.779Z,7.77
2019-05-12T06:40:19.277Z,7.75
2019-05-12T06:41:20.999Z,7.82
2019-05-12T06:42:19.252Z,7.90
2019-05-12T06:43:19.257Z,7.79
2019-05-12T06:44:19.746Z,7.90
2019-05-12T06:45:19.244Z,7.82
2019-05-12T06:46:20.629Z,7.91
2019-05-12T06:47:19.240Z,7.80
2019-05-12T06:48:24.431Z,7.73
2019-05-12T06:49:20.181Z,7.67
2019-05-12T06:50:19.197Z,7.75
2019-05-12T06:51:23.061Z,7.88
2019-05-12T06:52:20.146Z,7.94
2019-05-12T06:53:20.119Z,7.82
2019-05-12T06:54:20.137Z,7.90
2019-05-12T06:55:19.140Z,7.83
2019-05-12T06:56:19.900Z,7.91
2019-05-12T06:57:25.207Z,7.80
2019-05-12T06:58:29.784Z,7.97
2019-05-12T06:59:20.064Z,7.91
2019-05-12T07:00:22.364Z,7.97
2019-05-12T07:01:20.064Z,7.95
2019-05-12T07:02:19.110Z,8.10
2019-05-12T07:03:19.445Z,8.00
2019-05-12T07:04:22.806Z,8.08
2019-05-12T07:05:18.992Z,8.12
2019-05-12T07:06:20.010Z,8.08
2019-05-12T07:07:19.016Z,8.13
2019-05-12T07:08:26.346Z,8.09
2019-05-12T07:09:25.174Z,8.15
2019-05-12T07:10:39.396Z,8.18
2019-05-12T07:11:19.931Z,8.18
2019-05-12T07:12:18.942Z,8.23
2019-05-12T07:13:22.998Z,8.16
2019-05-12T07:14:22.804Z,8.12
2019-05-12T07:15:19.910Z,8.13
2019-05-12T07:16:23.254Z,8.23
2019-05-12T07:17:19.889Z,8.23
2019-05-12T07:18:24.354Z,8.27
2019-05-12T07:19:22.890Z,8.28
2019-05-12T07:20:19.829Z,8.28
2019-05-12T07:21:21.060Z,8.45
2019-05-12T07:22:22.544Z,8.49
2019-05-12T07:23:25.102Z,8.79
2019-05-12T07:24:19.780Z,8.92
2019-05-12T07:25:24.547Z,8.95
2019-05-12T07:26:19.844Z,9.02
2019-05-12T07:27:33.087Z,9.08
2019-05-12T07:28:19.744Z,9.13
2019-05-12T07:29:18.739Z,9.10
2019-05-12T07:30:18.738Z,9.10
2019-05-12T07:31:18.711Z,9.13
2019-05-12T07:32:21.680Z,9.08
2019-05-12T07:33:19.682Z,9.08
2019-05-12T07:34:18.684Z,9.06
2019-05-12T07:35:18.672Z,9.16
2019-05-12T07:36:18.648Z,9.13
2019-05-12T07:37:18.677Z,9.16
2019-05-12T07:38:21.450Z,9.23
2019-05-12T07:39:18.617Z,9.14
2019-05-12T07:40:19.019Z,9.19
2019-05-12T07:41:19.592Z,9.08
2019-05-12T07:42:25.138Z,9.21
2019-05-12T07:43:20.776Z,9.19
2019-05-12T07:44:21.876Z,9.19
2019-05-12T07:45:22.298Z,9.23
2019-05-12T07:46:19.578Z,9.29
2019-05-12T07:47:19.304Z,9.34
2019-05-12T07:48:19.517Z,9.37
2019-05-12T07:49:22.016Z,9.43
2019-05-12T07:50:21.388Z,9.39
2019-05-12T07:51:19.513Z,9.43
2019-05-12T07:52:18.481Z,9.48
2019-05-12T07:53:18.462Z,9.47
2019-05-12T07:54:18.469Z,9.55
2019-05-12T07:55:18.444Z,9.51
2019-05-12T07:56:19.637Z,9.54
2019-05-12T07:57:19.426Z,9.46
2019-05-12T07:58:19.313Z,9.51
2019-05-12T07:59:18.403Z,9.72
2019-05-12T08:00:22.807Z,9.79
2019-05-12T08:01:19.373Z,9.84
2019-05-12T08:02:25.495Z,10.01
2019-05-12T08:03:21.430Z,10.09
2019-05-12T08:04:18.356Z,10.19
2019-05-12T08:05:19.878Z,10.33
2019-05-12T08:06:18.324Z,10.42
2019-05-12T08:07:19.769Z,10.41
2019-05-12T08:08:19.292Z,10.54
2019-05-12T08:09:18.285Z,10.59
2019-05-12T08:10:20.097Z,10.67
2019-05-12T08:11:18.293Z,10.86
2019-05-12T08:12:21.013Z,10.82
2019-05-12T08:13:18.739Z,10.81
2019-05-12T08:14:25.882Z,10.97
2019-05-12T08:15:19.261Z,10.99
2019-05-12T08:16:19.474Z,11.22
2019-05-12T08:17:19.735Z,11.33
2019-05-12T08:18:18.181Z,11.55
2019-05-12T08:19:23.927Z,11.55
2019-05-12T08:20:19.208Z,11.45
2019-05-12T08:21:18.161Z,11.22
2019-05-12T08:22:23.827Z,11.11
2019-05-12T08:23:19.153Z,11.17
2019-05-12T08:24:18.121Z,10.99
2019-05-12T08:25:18.916Z,10.86
2019-05-12T08:26:19.099Z,10.60
2019-05-12T08:27:18.090Z,10.41
2019-05-12T08:28:19.322Z,10.22
2019-05-12T08:29:21.512Z,10.01
2019-05-12T08:30:19.046Z,9.94
2019-05-12T08:31:23.523Z,9.91
2019-05-12T08:32:20.376Z,9.91
2019-05-12T08:33:18.015Z,9.91
2019-05-12T08:34:18.024Z,9.82
2019-05-12T08:35:25.512Z,9.94
2019-05-12T08:36:18.980Z,10.05
2019-05-12T08:37:17.974Z,10.25
2019-05-12T08:38:17.960Z,10.40
2019-05-12T08:39:22.667Z,10.67
2019-05-12T08:40:18.964Z,10.72
2019-05-12T08:41:17.928Z,10.75
2019-05-12T08:42:17.913Z,10.96
2019-05-12T08:43:17.921Z,11.07
2019-05-12T08:44:17.890Z,11.07
2019-05-12T08:45:25.673Z,10.93
2019-05-12T08:46:18.916Z,11.00
2019-05-12T08:47:17.860Z,11.00
2019-05-12T08:48:21.785Z,11.02
2019-05-12T08:49:18.855Z,11.02
2019-05-12T08:50:23.246Z,11.00
2019-05-12T08:51:20.070Z,10.94
2019-05-12T08:52:19.797Z,10.90
2019-05-12T08:53:20.698Z,10.92
2019-05-12T08:54:18.817Z,10.78
2019-05-12T08:55:25.040Z,10.63
2019-05-12T08:56:19.866Z,10.57
2019-05-12T08:57:17.764Z,10.59
2019-05-12T08:58:30.161Z,10.40
2019-05-12T08:59:24.214Z,10.42
2019-05-12T09:00:18.720Z,10.38
2019-05-12T09:01:20.349Z,10.31
2019-05-12T09:02:18.732Z,10.56
2019-05-12T09:03:25.083Z,10.71
2019-05-12T09:04:18.672Z,10.78
2019-05-12T09:05:17.656Z,10.93
2019-05-12T09:06:19.736Z,11.04
2019-05-12T09:07:17.750Z,11.32
2019-05-12T09:08:17.624Z,11.41
2019-05-12T09:09:17.640Z,11.44
2019-05-12T09:10:17.604Z,11.52
2019-05-12T09:11:17.600Z,11.36
2019-05-12T09:12:17.613Z,11.50
2019-05-12T09:13:17.580Z,11.62
2019-05-12T09:14:17.556Z,11.69
2019-05-12T09:15:17.565Z,11.90
2019-05-12T09:16:17.594Z,12.15
2019-05-12T09:17:17.522Z,12.37
2019-05-12T09:18:18.990Z,12.55
2019-05-12T09:19:23.844Z,12.78
2019-05-12T09:20:18.535Z,12.95
2019-05-12T09:21:17.478Z,13.27
2019-05-12T09:22:20.968Z,13.41
2019-05-12T09:23:17.456Z,13.38
2019-05-12T09:24:21.841Z,13.47
2019-05-12T09:25:18.485Z,13.63
2019-05-12T09:26:18.575Z,13.19
2019-05-12T09:27:18.420Z,12.93
2019-05-12T09:28:17.424Z,12.68
2019-05-12T09:29:17.392Z,12.47
2019-05-12T09:30:17.392Z,12.39
2019-05-12T09:31:19.434Z,12.27
2019-05-12T09:32:18.356Z,12.22
2019-05-12T09:33:21.593Z,12.28
2019-05-12T09:34:18.363Z,12.47
2019-05-12T09:35:17.320Z,12.49
2019-05-12T09:36:21.748Z,12.65
2019-05-12T09:37:17.300Z,12.78
2019-05-12T09:38:26.439Z,12.91
2019-05-12T09:39:18.272Z,12.80
2019-05-12T09:40:20.579Z,12.49
2019-05-12T09:41:17.261Z,12.31
2019-05-12T09:42:19.260Z,12.31
2019-05-12T09:43:18.229Z,12.27
2019-05-12T09:44:20.345Z,12.13
2019-05-12T09:45:18.224Z,12.03
2019-05-12T09:46:17.204Z,11.70
2019-05-12T09:47:23.544Z,11.55
2019-05-12T09:48:18.196Z,11.52
2019-05-12T09:49:17.176Z,11.57
2019-05-12T09:50:20.250Z,11.43
2019-05-12T09:51:17.391Z,11.57
2019-05-12T09:52:22.126Z,11.48
2019-05-12T09:53:18.124Z,11.66
2019-05-12T09:54:17.116Z,11.73
2019-05-12T09:55:17.100Z,11.78
2019-05-12T09:56:17.100Z,11.81
2019-05-12T09:57:17.092Z,11.68
2019-05-12T09:58:23.263Z,11.65
2019-05-12T09:59:22.842Z,11.66
2019-05-12T10:00:18.052Z,11.75
2019-05-12T10:01:17.091Z,11.50
2019-05-12T10:02:20.633Z,11.66
2019-05-12T10:03:17.020Z,11.83
2019-05-12T10:04:19.631Z,12.02
2019-05-12T10:05:17.008Z,12.12
2019-05-12T10:06:21.137Z,12.29
2019-05-12T10:07:16.968Z,12.36
2019-05-12T10:08:16.973Z,12.35
2019-05-12T10:09:19.740Z,12.35
2019-05-12T10:10:16.924Z,12.50
2019-05-12T10:11:20.733Z,12.57
2019-05-12T10:12:16.908Z,12.82
2019-05-12T10:13:20.368Z,13.13
2019-05-12T10:14:17.892Z,13.47
2019-05-12T10:15:18.675Z,13.59
2019-05-12T10:16:17.860Z,13.72
2019-05-12T10:17:20.463Z,13.56
2019-05-12T10:18:17.856Z,13.37
2019-05-12T10:19:16.840Z,13.08
2019-05-12T10:20:16.812Z,12.83
2019-05-12T10:21:17.611Z,12.68
2019-05-12T10:22:16.820Z,12.62
2019-05-12T10:23:20.680Z,12.62
2019-05-12T10:24:17.775Z,12.57
2019-05-12T10:25:16.764Z,12.72
2019-05-12T10:26:16.756Z,12.83
2019-05-12T10:27:21.136Z,12.98
2019-05-12T10:28:17.728Z,13.04
2019-05-12T10:29:20.679Z,13.19
2019-05-12T10:30:17.453Z,13.15
2019-05-12T10:31:18.666Z,13.08
2019-05-12T10:32:16.696Z,13.25
2019-05-12T10:33:16.668Z,13.44
2019-05-12T10:34:16.674Z,13.54
2019-05-12T10:35:21.532Z,13.75
2019-05-12T10:36:17.649Z,13.77
2019-05-12T10:37:19.359Z,13.99
2019-05-12T10:38:17.616Z,14.11
2019-05-12T10:39:16.620Z,13.97
2019-05-12T10:40:16.609Z,14.03
2019-05-12T10:41:16.591Z,13.89
2019-05-12T10:42:16.572Z,13.83
2019-05-12T10:43:16.569Z,13.81
2019-05-12T10:44:16.552Z,13.81
2019-05-12T10:45:20.435Z,13.90
2019-05-12T10:46:18.347Z,13.60
2019-05-12T10:47:17.521Z,13.54
2019-05-12T10:48:16.500Z,13.53
2019-05-12T10:49:16.504Z,13.52
2019-05-12T10:50:16.490Z,13.52
2019-05-12T10:51:16.568Z,13.35
2019-05-12T10:52:16.469Z,13.37
2019-05-12T10:53:17.963Z,13.22
2019-05-12T10:54:16.444Z,13.39
2019-05-12T10:55:16.428Z,13.19
2019-05-12T10:56:16.488Z,13.09
2019-05-12T10:57:16.432Z,13.03
2019-05-12T10:58:16.462Z,12.98
2019-05-12T10:59:29.190Z,12.68
2019-05-12T11:00:19.719Z,12.62
2019-05-12T11:01:17.360Z,12.53
2019-05-12T11:02:20.540Z,12.36
2019-05-12T11:03:17.357Z,12.36
2019-05-12T11:04:16.356Z,12.39
2019-05-12T11:05:21.337Z,12.53
2019-05-12T11:06:17.313Z,12.79
2019-05-12T11:07:16.307Z,12.98
2019-05-12T11:08:16.288Z,13.28
2019-05-12T11:09:16.281Z,13.31
2019-05-12T11:10:20.149Z,13.53
2019-05-12T11:11:16.248Z,13.75
2019-05-12T11:12:19.009Z,14.08
2019-05-12T11:13:18.175Z,14.17
2019-05-12T11:14:20.303Z,14.32
2019-05-12T11:15:17.252Z,14.54
2019-05-12T11:16:16.903Z,14.72
2019-05-12T11:17:16.180Z,14.89
2019-05-12T11:18:20.553Z,15.04
2019-05-12T11:19:17.168Z,15.00
2019-05-12T11:20:16.152Z,15.00
2019-05-12T11:21:16.137Z,14.96
2019-05-12T11:22:16.141Z,15.07
2019-05-12T11:23:16.123Z,15.07
2019-05-12T11:24:16.107Z,14.88
2019-05-12T11:25:16.092Z,14.82
2019-05-12T11:26:16.076Z,14.78
2019-05-12T11:27:16.072Z,14.89
2019-05-12T11:28:16.068Z,14.97
2019-05-12T11:29:16.064Z,14.92
2019-05-12T11:30:16.052Z,14.79
2019-05-12T11:31:16.020Z,14.94
2019-05-12T11:32:17.715Z,15.04
2019-05-12T11:33:16.008Z,15.06
2019-05-12T11:34:16.005Z,14.91
2019-05-12T11:35:15.984Z,14.63
2019-05-12T11:36:16.038Z,14.44
2019-05-12T11:37:15.960Z,14.44
2019-05-12T11:38:15.948Z,14.44
2019-05-12T11:39:15.950Z,14.62
2019-05-12T11:40:15.920Z,14.55
2019-05-12T11:41:20.103Z,14.43
2019-05-12T11:42:15.908Z,14.22
2019-05-12T11:43:15.919Z,13.90
2019-05-12T11:44:15.923Z,13.79
2019-05-12T11:45:15.874Z,13.67
2019-05-12T11:46:15.856Z,13.54
2019-05-12T11:47:23.846Z,13.33
2019-05-12T11:48:16.828Z,13.12
2019-05-12T11:49:15.820Z,13.28
2019-05-12T11:50:15.824Z,13.38
2019-05-12T11:51:15.800Z,13.68
2019-05-12T11:52:19.102Z,13.87
2019-05-12T11:53:15.776Z,14.11
2019-05-12T11:54:15.796Z,14.43
2019-05-12T11:55:15.756Z,14.60
2019-05-12T11:56:15.745Z,14.79
2019-05-12T11:57:20.179Z,14.99
2019-05-12T11:58:16.731Z,15.09
2019-05-12T11:59:15.709Z,15.28
2019-05-12T12:00:15.736Z,15.39
2019-05-12T12:01:15.693Z,15.58
2019-05-12T12:02:20.264Z,15.64
2019-05-12T12:03:18.174Z,15.80
2019-05-12T12:04:15.696Z,15.86
2019-05-12T12:05:15.640Z,15.84
2019-05-12T12:06:15.635Z,15.98
2019-05-12T12:07:15.668Z,16.02
2019-05-12T12:08:15.630Z,16.12
2019-05-12T12:09:18.836Z,16.02
2019-05-12T12:10:15.606Z,15.98
2019-05-12T12:11:21.953Z,16.04
2019-05-12T12:12:16.572Z,16.09
2019-05-12T12:13:19.404Z,16.13
2019-05-12T12:14:16.581Z,15.92
2019-05-12T12:15:20.325Z,15.67
2019-05-12T12:16:16.519Z,15.64
2019-05-12T12:17:15.520Z,15.54
2019-05-12T12:18:15.598Z,15.57
2019-05-12T12:19:15.532Z,15.57
2019-05-12T12:20:22.031Z,15.67
2019-05-12T12:21:16.465Z,15.44
2019-05-12T12:22:20.286Z,15.61
2019-05-12T12:23:16.471Z,15.76
2019-05-12T12:24:15.434Z,15.94
2019-05-12T12:25:15.695Z,15.98
2019-05-12T12:26:20.034Z,15.83
2019-05-12T12:27:15.398Z,15.67
2019-05-12T12:28:15.391Z,15.52
2019-05-12T12:29:15.377Z,15.64
2019-05-12T12:30:19.459Z,15.88
2019-05-12T12:31:15.373Z,16.04
2019-05-12T12:32:20.032Z,16.12
2019-05-12T12:33:16.333Z,16.33
2019-05-12T12:34:23.210Z,16.39
2019-05-12T12:35:16.306Z,16.31
2019-05-12T12:36:15.296Z,16.10
2019-05-12T12:37:18.818Z,16.02
2019-05-12T12:38:16.275Z,15.77
2019-05-12T12:39:15.274Z,15.37
2019-05-12T12:40:15.260Z,15.25
2019-05-12T12:41:15.256Z,15.54
2019-05-12T12:42:15.264Z,15.72
2019-05-12T12:43:15.222Z,15.90
2019-05-12T12:44:15.212Z,15.67
2019-05-12T12:45:15.203Z,15.68
2019-05-12T12:46:19.819Z,15.61
2019-05-12T12:47:16.231Z,15.59
2019-05-12T12:48:19.299Z,15.31
2019-05-12T12:49:16.156Z,15.09
2019-05-12T12:50:15.148Z,14.77
2019-05-12T12:51:17.480Z,14.65
2019-05-12T12:52:15.168Z,14.55
2019-05-12T12:53:15.134Z,14.35
2019-05-12T12:54:15.103Z,14.18
2019-05-12T12:55:15.101Z,13.95
2019-05-12T12:56:16.241Z,13.74
2019-05-12T12:57:19.027Z,13.65
2019-05-12T12:58:15.063Z,13.67
2019-05-12T12:59:15.038Z,13.63
2019-05-12T13:00:28.474Z,13.67
2019-05-12T13:01:26.455Z,13.72
2019-05-12T13:02:16.011Z,13.72
2019-05-12T13:03:19.662Z,13.72
2019-05-12T13:04:16.027Z,13.62
2019-05-12T13:05:14.978Z,13.53
2019-05-12T13:06:17.439Z,13.50
2019-05-12T13:07:14.955Z,13.56
2019-05-12T13:08:14.942Z,13.60